sensor_id;sensor_type;location;lat;lon;timestamp;P1;durP1;ratioP1;P2;durP2;ratioP2
11835;SDS011;5977;51.972;7.640;2023-12-20T00:01:19;145.27;;;46.97;;
11835;SDS011;5977;51.972;7.640;2023-12-20T00:03:48;144.63;;;46.70;;
11835;SDS011;5977;51.972;7.640;2023-12-20T00:06:16;144.73;;;46.80;;
11835;SDS011;5977;51.972;7.640;2023-12-20T00:08:44;144.83;;;46.80;;
11835;SDS011;5977;51.972;7.640;2023-12-20T00:11:12;145.33;;;47.10;;
11835;SDS011;5977;51.972;7.640;2023-12-20T00:13:41;144.57;;;46.63;;
11835;SDS011;5977;51.972;7.640;2023-12-20T00:16:09;145.03;;;46.77;;
11835;SDS011;5977;51.972;7.640;2023-12-20T00:18:37;145.10;;;46.93;;
11835;SDS011;5977;51.972;7.640;2023-12-20T00:21:05;144.30;;;46.53;;
11835;SDS011;5977;51.972;7.640;2023-12-20T00:23:32;145.43;;;47.17;;
11835;SDS011;5977;51.972;7.640;2023-12-20T00:26:00;144.73;;;46.70;;
11835;SDS011;5977;51.972;7.640;2023-12-20T00:28:28;145.23;;;46.97;;
11835;SDS011;5977;51.972;7.640;2023-12-20T00:30:57;144.87;;;46.77;;
11835;SDS011;5977;51.972;7.640;2023-12-20T00:33:25;145.43;;;47.07;;
11835;SDS011;5977;51.972;7.640;2023-12-20T00:35:53;145.30;;;46.87;;
11835;SDS011;5977;51.972;7.640;2023-12-20T00:38:21;145.27;;;46.87;;
11835;SDS011;5977;51.972;7.640;2023-12-20T00:40:49;145.23;;;46.93;;
11835;SDS011;5977;51.972;7.640;2023-12-20T00:43:17;145.47;;;47.07;;
11835;SDS011;5977;51.972;7.640;2023-12-20T00:45:45;145.37;;;47.03;;
11835;SDS011;5977;51.972;7.640;2023-12-20T00:48:14;145.13;;;46.90;;
11835;SDS011;5977;51.972;7.640;2023-12-20T00:50:42;145.43;;;47.17;;
11835;SDS011;5977;51.972;7.640;2023-12-20T00:53:10;145.00;;;46.83;;
11835;SDS011;5977;51.972;7.640;2023-12-20T00:55:38;145.50;;;46.90;;
11835;SDS011;5977;51.972;7.640;2023-12-20T00:58:06;146.07;;;47.23;;
11835;SDS011;5977;51.972;7.640;2023-12-20T01:00:34;145.00;;;46.87;;
11835;SDS011;5977;51.972;7.640;2023-12-20T01:03:02;145.70;;;47.20;;
11835;SDS011;5977;51.972;7.640;2023-12-20T01:05:32;145.27;;;47.00;;
11835;SDS011;5977;51.972;7.640;2023-12-20T01:08:00;145.43;;;46.93;;
11835;SDS011;5977;51.972;7.640;2023-12-20T01:10:29;145.33;;;46.87;;
11835;SDS011;5977;51.972;7.640;2023-12-20T01:12:57;144.60;;;46.73;;
11835;SDS011;5977;51.972;7.640;2023-12-20T01:15:24;145.20;;;46.87;;
11835;SDS011;5977;51.972;7.640;2023-12-20T01:17:52;144.77;;;46.70;;
11835;SDS011;5977;51.972;7.640;2023-12-20T01:20:20;144.87;;;46.77;;
11835;SDS011;5977;51.972;7.640;2023-12-20T01:22:50;144.60;;;46.63;;
11835;SDS011;5977;51.972;7.640;2023-12-20T01:25:17;145.00;;;46.93;;
11835;SDS011;5977;51.972;7.640;2023-12-20T01:27:45;144.97;;;46.97;;
11835;SDS011;5977;51.972;7.640;2023-12-20T01:30:14;144.47;;;46.67;;
11835;SDS011;5977;51.972;7.640;2023-12-20T01:32:42;145.03;;;46.83;;
11835;SDS011;5977;51.972;7.640;2023-12-20T01:35:10;144.67;;;46.67;;
11835;SDS011;5977;51.972;7.640;2023-12-20T01:37:39;144.87;;;46.73;;
11835;SDS011;5977;51.972;7.640;2023-12-20T01:40:09;145.17;;;46.90;;
11835;SDS011;5977;51.972;7.640;2023-12-20T01:42:37;145.10;;;46.90;;
11835;SDS011;5977;51.972;7.640;2023-12-20T01:45:06;145.07;;;46.87;;
11835;SDS011;5977;51.972;7.640;2023-12-20T01:47:34;144.93;;;46.83;;
11835;SDS011;5977;51.972;7.640;2023-12-20T01:50:03;144.60;;;46.70;;
11835;SDS011;5977;51.972;7.640;2023-12-20T01:52:34;145.07;;;46.90;;
11835;SDS011;5977;51.972;7.640;2023-12-20T01:55:02;144.30;;;46.73;;
11835;SDS011;5977;51.972;7.640;2023-12-20T01:57:38;143.77;;;46.40;;
11835;SDS011;5977;51.972;7.640;2023-12-20T02:00:07;143.63;;;46.30;;
11835;SDS011;5977;51.972;7.640;2023-12-20T02:02:37;143.53;;;46.30;;
11835;SDS011;5977;51.972;7.640;2023-12-20T02:05:07;144.30;;;46.70;;
11835;SDS011;5977;51.972;7.640;2023-12-20T02:07:35;144.13;;;46.57;;
11835;SDS011;5977;51.972;7.640;2023-12-20T02:10:03;144.33;;;46.67;;
11835;SDS011;5977;51.972;7.640;2023-12-20T02:12:32;143.80;;;46.43;;
11835;SDS011;5977;51.972;7.640;2023-12-20T02:15:01;143.97;;;46.53;;
11835;SDS011;5977;51.972;7.640;2023-12-20T02:17:29;143.97;;;46.53;;
11835;SDS011;5977;51.972;7.640;2023-12-20T02:19:58;143.77;;;46.47;;
11835;SDS011;5977;51.972;7.640;2023-12-20T02:22:28;143.97;;;46.43;;
11835;SDS011;5977;51.972;7.640;2023-12-20T02:24:56;143.67;;;46.43;;
11835;SDS011;5977;51.972;7.640;2023-12-20T02:27:24;144.10;;;46.60;;
11835;SDS011;5977;51.972;7.640;2023-12-20T02:29:52;144.20;;;46.63;;
11835;SDS011;5977;51.972;7.640;2023-12-20T02:32:20;144.10;;;46.53;;
11835;SDS011;5977;51.972;7.640;2023-12-20T02:34:52;144.53;;;46.80;;
11835;SDS011;5977;51.972;7.640;2023-12-20T02:37:20;143.93;;;46.63;;
11835;SDS011;5977;51.972;7.640;2023-12-20T02:39:50;144.33;;;46.70;;
11835;SDS011;5977;51.972;7.640;2023-12-20T02:42:17;144.40;;;46.73;;
11835;SDS011;5977;51.972;7.640;2023-12-20T02:44:45;143.53;;;46.30;;
11835;SDS011;5977;51.972;7.640;2023-12-20T02:47:13;144.13;;;46.57;;
11835;SDS011;5977;51.972;7.640;2023-12-20T02:49:41;143.97;;;46.70;;
11835;SDS011;5977;51.972;7.640;2023-12-20T02:52:09;143.27;;;46.30;;
11835;SDS011;5977;51.972;7.640;2023-12-20T02:54:37;142.97;;;46.07;;
11835;SDS011;5977;51.972;7.640;2023-12-20T02:57:06;143.63;;;46.50;;
11835;SDS011;5977;51.972;7.640;2023-12-20T02:59:34;143.50;;;46.37;;
11835;SDS011;5977;51.972;7.640;2023-12-20T03:02:02;144.13;;;46.57;;
11835;SDS011;5977;51.972;7.640;2023-12-20T03:04:30;144.40;;;46.83;;
11835;SDS011;5977;51.972;7.640;2023-12-20T03:06:59;144.83;;;46.90;;
11835;SDS011;5977;51.972;7.640;2023-12-20T03:09:26;143.87;;;46.57;;
11835;SDS011;5977;51.972;7.640;2023-12-20T03:11:58;144.37;;;46.70;;
11835;SDS011;5977;51.972;7.640;2023-12-20T03:14:27;143.50;;;46.27;;
11835;SDS011;5977;51.972;7.640;2023-12-20T03:16:54;143.90;;;46.50;;
11835;SDS011;5977;51.972;7.640;2023-12-20T03:19:25;144.10;;;46.63;;
11835;SDS011;5977;51.972;7.640;2023-12-20T03:21:53;143.23;;;46.17;;
11835;SDS011;5977;51.972;7.640;2023-12-20T03:24:21;143.63;;;46.40;;
11835;SDS011;5977;51.972;7.640;2023-12-20T03:26:49;143.27;;;46.27;;
11835;SDS011;5977;51.972;7.640;2023-12-20T03:29:17;143.83;;;46.60;;
11835;SDS011;5977;51.972;7.640;2023-12-20T03:31:46;143.57;;;46.50;;
11835;SDS011;5977;51.972;7.640;2023-12-20T03:34:14;144.03;;;46.60;;
11835;SDS011;5977;51.972;7.640;2023-12-20T03:36:42;143.63;;;46.47;;
11835;SDS011;5977;51.972;7.640;2023-12-20T03:39:10;143.27;;;46.27;;
11835;SDS011;5977;51.972;7.640;2023-12-20T03:41:38;143.37;;;46.30;;
11835;SDS011;5977;51.972;7.640;2023-12-20T03:44:05;143.37;;;46.37;;
11835;SDS011;5977;51.972;7.640;2023-12-20T03:46:33;143.97;;;46.63;;
11835;SDS011;5977;51.972;7.640;2023-12-20T03:49:02;144.03;;;46.63;;
11835;SDS011;5977;51.972;7.640;2023-12-20T03:51:30;143.70;;;46.50;;
11835;SDS011;5977;51.972;7.640;2023-12-20T03:53:58;144.33;;;46.73;;
11835;SDS011;5977;51.972;7.640;2023-12-20T03:56:26;143.73;;;46.70;;
11835;SDS011;5977;51.972;7.640;2023-12-20T03:58:54;144.30;;;46.80;;
11835;SDS011;5977;51.972;7.640;2023-12-20T04:01:22;144.30;;;46.80;;
11835;SDS011;5977;51.972;7.640;2023-12-20T04:03:49;143.80;;;46.47;;
11835;SDS011;5977;51.972;7.640;2023-12-20T04:06:19;143.87;;;46.67;;
11835;SDS011;5977;51.972;7.640;2023-12-20T04:08:47;144.73;;;46.97;;
11835;SDS011;5977;51.972;7.640;2023-12-20T04:11:14;144.07;;;46.70;;
11835;SDS011;5977;51.972;7.640;2023-12-20T04:13:42;144.40;;;46.73;;
11835;SDS011;5977;51.972;7.640;2023-12-20T04:16:10;144.03;;;46.70;;
11835;SDS011;5977;51.972;7.640;2023-12-20T04:18:38;144.03;;;46.57;;
11835;SDS011;5977;51.972;7.640;2023-12-20T04:21:06;143.73;;;46.57;;
11835;SDS011;5977;51.972;7.640;2023-12-20T04:23:35;143.93;;;46.60;;
11835;SDS011;5977;51.972;7.640;2023-12-20T04:26:03;143.60;;;46.47;;
11835;SDS011;5977;51.972;7.640;2023-12-20T04:28:31;143.73;;;46.50;;
11835;SDS011;5977;51.972;7.640;2023-12-20T04:30:59;143.60;;;46.53;;
11835;SDS011;5977;51.972;7.640;2023-12-20T04:33:28;143.33;;;46.33;;
11835;SDS011;5977;51.972;7.640;2023-12-20T04:35:55;144.03;;;46.67;;
11835;SDS011;5977;51.972;7.640;2023-12-20T04:38:24;143.07;;;46.23;;
11835;SDS011;5977;51.972;7.640;2023-12-20T04:40:53;143.53;;;46.50;;
11835;SDS011;5977;51.972;7.640;2023-12-20T04:43:21;143.60;;;46.53;;
11835;SDS011;5977;51.972;7.640;2023-12-20T04:45:49;143.47;;;46.53;;
11835;SDS011;5977;51.972;7.640;2023-12-20T04:48:16;143.80;;;46.67;;
11835;SDS011;5977;51.972;7.640;2023-12-20T04:50:44;143.17;;;46.20;;
11835;SDS011;5977;51.972;7.640;2023-12-20T04:53:12;143.57;;;46.60;;
11835;SDS011;5977;51.972;7.640;2023-12-20T04:55:40;143.40;;;46.53;;
11835;SDS011;5977;51.972;7.640;2023-12-20T04:58:09;143.23;;;46.37;;
11835;SDS011;5977;51.972;7.640;2023-12-20T05:00:37;143.20;;;46.23;;
11835;SDS011;5977;51.972;7.640;2023-12-20T05:03:05;143.20;;;46.43;;
11835;SDS011;5977;51.972;7.640;2023-12-20T05:05:33;143.00;;;46.40;;
11835;SDS011;5977;51.972;7.640;2023-12-20T05:08:01;143.13;;;46.47;;
11835;SDS011;5977;51.972;7.640;2023-12-20T05:10:30;143.57;;;46.63;;
11835;SDS011;5977;51.972;7.640;2023-12-20T05:12:58;143.27;;;46.40;;
11835;SDS011;5977;51.972;7.640;2023-12-20T05:15:27;144.03;;;46.80;;
11835;SDS011;5977;51.972;7.640;2023-12-20T05:17:56;143.13;;;46.33;;
11835;SDS011;5977;51.972;7.640;2023-12-20T05:20:23;143.93;;;46.60;;
11835;SDS011;5977;51.972;7.640;2023-12-20T05:22:51;142.87;;;46.30;;
11835;SDS011;5977;51.972;7.640;2023-12-20T05:25:19;143.20;;;46.43;;
11835;SDS011;5977;51.972;7.640;2023-12-20T05:27:47;143.10;;;46.33;;
11835;SDS011;5977;51.972;7.640;2023-12-20T05:30:16;143.60;;;46.60;;
11835;SDS011;5977;51.972;7.640;2023-12-20T05:32:45;143.80;;;46.60;;
11835;SDS011;5977;51.972;7.640;2023-12-20T05:35:13;143.43;;;46.47;;
11835;SDS011;5977;51.972;7.640;2023-12-20T05:37:41;144.13;;;46.57;;
11835;SDS011;5977;51.972;7.640;2023-12-20T05:40:10;144.03;;;46.80;;
11835;SDS011;5977;51.972;7.640;2023-12-20T05:42:38;144.20;;;46.80;;
11835;SDS011;5977;51.972;7.640;2023-12-20T05:45:06;143.27;;;46.33;;
11835;SDS011;5977;51.972;7.640;2023-12-20T05:47:34;144.47;;;46.83;;
11835;SDS011;5977;51.972;7.640;2023-12-20T05:50:04;142.70;;;46.17;;
11835;SDS011;5977;51.972;7.640;2023-12-20T05:52:32;144.07;;;46.70;;
11835;SDS011;5977;51.972;7.640;2023-12-20T05:55:00;144.20;;;46.73;;
11835;SDS011;5977;51.972;7.640;2023-12-20T05:57:28;143.83;;;46.63;;
11835;SDS011;5977;51.972;7.640;2023-12-20T05:59:56;143.87;;;46.57;;
11835;SDS011;5977;51.972;7.640;2023-12-20T06:02:24;143.93;;;46.70;;
11835;SDS011;5977;51.972;7.640;2023-12-20T06:04:52;143.93;;;46.50;;
11835;SDS011;5977;51.972;7.640;2023-12-20T06:07:21;143.67;;;46.53;;
11835;SDS011;5977;51.972;7.640;2023-12-20T06:09:49;144.13;;;46.73;;
11835;SDS011;5977;51.972;7.640;2023-12-20T06:12:17;143.50;;;46.40;;
11835;SDS011;5977;51.972;7.640;2023-12-20T06:14:45;144.03;;;46.77;;
11835;SDS011;5977;51.972;7.640;2023-12-20T06:17:13;144.03;;;46.70;;
11835;SDS011;5977;51.972;7.640;2023-12-20T06:19:41;143.70;;;46.60;;
11835;SDS011;5977;51.972;7.640;2023-12-20T06:22:11;143.77;;;46.63;;
11835;SDS011;5977;51.972;7.640;2023-12-20T06:24:40;143.90;;;46.70;;
11835;SDS011;5977;51.972;7.640;2023-12-20T06:27:08;144.13;;;46.73;;
11835;SDS011;5977;51.972;7.640;2023-12-20T06:29:36;144.20;;;46.80;;
11835;SDS011;5977;51.972;7.640;2023-12-20T06:32:04;144.17;;;46.80;;
11835;SDS011;5977;51.972;7.640;2023-12-20T06:34:32;144.23;;;46.73;;
11835;SDS011;5977;51.972;7.640;2023-12-20T06:37:01;143.80;;;46.63;;
11835;SDS011;5977;51.972;7.640;2023-12-20T06:39:28;144.50;;;47.03;;
11835;SDS011;5977;51.972;7.640;2023-12-20T06:41:58;143.87;;;46.53;;
11835;SDS011;5977;51.972;7.640;2023-12-20T06:44:26;144.40;;;46.83;;
11835;SDS011;5977;51.972;7.640;2023-12-20T06:46:54;144.37;;;46.80;;
11835;SDS011;5977;51.972;7.640;2023-12-20T06:49:21;144.37;;;46.80;;
11835;SDS011;5977;51.972;7.640;2023-12-20T06:51:49;143.80;;;46.53;;
11835;SDS011;5977;51.972;7.640;2023-12-20T06:54:17;144.23;;;46.80;;
11835;SDS011;5977;51.972;7.640;2023-12-20T06:56:45;144.23;;;46.87;;
11835;SDS011;5977;51.972;7.640;2023-12-20T06:59:14;144.40;;;46.83;;
11835;SDS011;5977;51.972;7.640;2023-12-20T07:01:42;143.67;;;46.53;;
11835;SDS011;5977;51.972;7.640;2023-12-20T07:04:15;143.47;;;46.47;;
11835;SDS011;5977;51.972;7.640;2023-12-20T07:06:47;143.87;;;46.70;;
11835;SDS011;5977;51.972;7.640;2023-12-20T07:09:17;143.77;;;46.63;;
11835;SDS011;5977;51.972;7.640;2023-12-20T07:11:45;144.07;;;46.70;;
11835;SDS011;5977;51.972;7.640;2023-12-20T07:14:14;144.47;;;46.80;;
11835;SDS011;5977;51.972;7.640;2023-12-20T07:16:42;144.47;;;46.93;;
11835;SDS011;5977;51.972;7.640;2023-12-20T07:19:10;144.27;;;46.80;;
11835;SDS011;5977;51.972;7.640;2023-12-20T07:21:38;143.73;;;46.60;;
11835;SDS011;5977;51.972;7.640;2023-12-20T07:24:06;144.73;;;46.97;;
11835;SDS011;5977;51.972;7.640;2023-12-20T07:26:34;144.17;;;46.80;;
11835;SDS011;5977;51.972;7.640;2023-12-20T07:29:04;144.87;;;47.17;;
11835;SDS011;5977;51.972;7.640;2023-12-20T07:31:34;143.77;;;46.60;;
11835;SDS011;5977;51.972;7.640;2023-12-20T07:34:02;143.93;;;46.73;;
11835;SDS011;5977;51.972;7.640;2023-12-20T07:36:30;144.47;;;46.87;;
11835;SDS011;5977;51.972;7.640;2023-12-20T07:38:58;143.50;;;46.43;;
11835;SDS011;5977;51.972;7.640;2023-12-20T07:41:25;144.73;;;47.00;;
11835;SDS011;5977;51.972;7.640;2023-12-20T07:43:53;144.47;;;46.90;;
11835;SDS011;5977;51.972;7.640;2023-12-20T07:46:22;144.63;;;46.97;;
11835;SDS011;5977;51.972;7.640;2023-12-20T07:48:55;144.47;;;46.83;;
11835;SDS011;5977;51.972;7.640;2023-12-20T07:51:23;144.43;;;46.83;;
11835;SDS011;5977;51.972;7.640;2023-12-20T07:53:51;144.57;;;47.00;;
11835;SDS011;5977;51.972;7.640;2023-12-20T07:56:19;143.80;;;46.67;;
11835;SDS011;5977;51.972;7.640;2023-12-20T07:58:47;143.83;;;46.60;;
11835;SDS011;5977;51.972;7.640;2023-12-20T08:01:19;143.53;;;46.57;;
11835;SDS011;5977;51.972;7.640;2023-12-20T08:03:48;143.33;;;46.47;;
11835;SDS011;5977;51.972;7.640;2023-12-20T08:06:19;144.10;;;46.80;;
11835;SDS011;5977;51.972;7.640;2023-12-20T08:08:47;144.63;;;46.90;;
11835;SDS011;5977;51.972;7.640;2023-12-20T08:11:27;144.00;;;46.73;;
11835;SDS011;5977;51.972;7.640;2023-12-20T08:13:55;144.17;;;46.80;;
11835;SDS011;5977;51.972;7.640;2023-12-20T08:16:23;143.53;;;46.60;;
11835;SDS011;5977;51.972;7.640;2023-12-20T08:18:51;143.73;;;46.57;;
11835;SDS011;5977;51.972;7.640;2023-12-20T08:21:20;144.10;;;46.77;;
11835;SDS011;5977;51.972;7.640;2023-12-20T08:23:49;144.77;;;47.00;;
11835;SDS011;5977;51.972;7.640;2023-12-20T08:26:18;144.23;;;46.77;;
11835;SDS011;5977;51.972;7.640;2023-12-20T08:28:47;143.93;;;46.70;;
11835;SDS011;5977;51.972;7.640;2023-12-20T08:31:15;144.70;;;47.00;;
11835;SDS011;5977;51.972;7.640;2023-12-20T08:33:44;144.83;;;46.97;;
11835;SDS011;5977;51.972;7.640;2023-12-20T08:36:13;144.47;;;46.90;;
11835;SDS011;5977;51.972;7.640;2023-12-20T08:38:45;144.33;;;46.70;;
11835;SDS011;5977;51.972;7.640;2023-12-20T08:41:13;144.97;;;47.10;;
11835;SDS011;5977;51.972;7.640;2023-12-20T08:43:40;144.10;;;46.80;;
11835;SDS011;5977;51.972;7.640;2023-12-20T08:46:08;143.90;;;46.57;;
11835;SDS011;5977;51.972;7.640;2023-12-20T08:48:37;144.73;;;47.07;;
11835;SDS011;5977;51.972;7.640;2023-12-20T08:51:05;144.33;;;46.77;;
11835;SDS011;5977;51.972;7.640;2023-12-20T08:53:35;144.53;;;46.93;;
11835;SDS011;5977;51.972;7.640;2023-12-20T08:56:04;144.17;;;46.87;;
11835;SDS011;5977;51.972;7.640;2023-12-20T08:58:33;143.97;;;46.73;;
11835;SDS011;5977;51.972;7.640;2023-12-20T09:01:02;144.57;;;46.90;;
11835;SDS011;5977;51.972;7.640;2023-12-20T09:03:30;144.23;;;46.67;;
11835;SDS011;5977;51.972;7.640;2023-12-20T09:05:58;144.07;;;46.63;;
11835;SDS011;5977;51.972;7.640;2023-12-20T09:08:26;144.17;;;46.83;;
11835;SDS011;5977;51.972;7.640;2023-12-20T09:10:54;144.57;;;46.97;;
11835;SDS011;5977;51.972;7.640;2023-12-20T09:13:23;144.50;;;46.87;;
11835;SDS011;5977;51.972;7.640;2023-12-20T09:15:54;145.30;;;47.27;;
11835;SDS011;5977;51.972;7.640;2023-12-20T09:18:23;145.30;;;47.17;;
11835;SDS011;5977;51.972;7.640;2023-12-20T09:20:51;145.07;;;47.10;;
11835;SDS011;5977;51.972;7.640;2023-12-20T09:23:19;145.00;;;47.10;;
11835;SDS011;5977;51.972;7.640;2023-12-20T09:25:46;145.20;;;47.13;;
11835;SDS011;5977;51.972;7.640;2023-12-20T09:28:14;145.37;;;47.20;;
11835;SDS011;5977;51.972;7.640;2023-12-20T09:30:44;144.40;;;46.83;;
11835;SDS011;5977;51.972;7.640;2023-12-20T09:33:12;144.53;;;46.90;;
11835;SDS011;5977;51.972;7.640;2023-12-20T09:35:40;144.83;;;47.03;;
11835;SDS011;5977;51.972;7.640;2023-12-20T09:38:08;144.80;;;46.83;;
11835;SDS011;5977;51.972;7.640;2023-12-20T09:40:37;144.80;;;47.03;;
11835;SDS011;5977;51.972;7.640;2023-12-20T09:43:10;145.10;;;47.00;;
11835;SDS011;5977;51.972;7.640;2023-12-20T09:45:41;144.40;;;46.73;;
11835;SDS011;5977;51.972;7.640;2023-12-20T09:48:14;145.20;;;47.17;;
11835;SDS011;5977;51.972;7.640;2023-12-20T09:50:45;145.03;;;47.13;;
11835;SDS011;5977;51.972;7.640;2023-12-20T09:53:19;145.10;;;46.93;;
11835;SDS011;5977;51.972;7.640;2023-12-20T09:55:49;145.30;;;47.23;;
11835;SDS011;5977;51.972;7.640;2023-12-20T09:58:18;145.57;;;47.33;;
11835;SDS011;5977;51.972;7.640;2023-12-20T10:00:46;146.80;;;47.73;;
11835;SDS011;5977;51.972;7.640;2023-12-20T10:03:16;145.60;;;47.33;;
11835;SDS011;5977;51.972;7.640;2023-12-20T10:05:49;145.50;;;47.10;;
11835;SDS011;5977;51.972;7.640;2023-12-20T10:08:21;145.67;;;47.17;;
11835;SDS011;5977;51.972;7.640;2023-12-20T10:10:49;145.50;;;47.23;;
11835;SDS011;5977;51.972;7.640;2023-12-20T10:13:17;145.33;;;47.17;;
11835;SDS011;5977;51.972;7.640;2023-12-20T10:15:45;145.53;;;47.33;;
11835;SDS011;5977;51.972;7.640;2023-12-20T10:18:13;145.33;;;47.10;;
11835;SDS011;5977;51.972;7.640;2023-12-20T10:20:44;145.73;;;47.20;;
11835;SDS011;5977;51.972;7.640;2023-12-20T10:23:13;146.17;;;47.70;;
11835;SDS011;5977;51.972;7.640;2023-12-20T10:25:43;145.43;;;47.17;;
11835;SDS011;5977;51.972;7.640;2023-12-20T10:28:23;145.47;;;47.17;;
11835;SDS011;5977;51.972;7.640;2023-12-20T10:30:54;145.13;;;47.03;;
11835;SDS011;5977;51.972;7.640;2023-12-20T10:33:25;145.80;;;47.37;;
11835;SDS011;5977;51.972;7.640;2023-12-20T10:35:55;145.80;;;47.47;;
11835;SDS011;5977;51.972;7.640;2023-12-20T10:38:23;144.87;;;46.93;;
11835;SDS011;5977;51.972;7.640;2023-12-20T10:40:52;146.03;;;47.53;;
11835;SDS011;5977;51.972;7.640;2023-12-20T10:43:24;147.13;;;47.90;;
11835;SDS011;5977;51.972;7.640;2023-12-20T10:45:53;147.83;;;48.03;;
11835;SDS011;5977;51.972;7.640;2023-12-20T10:48:21;149.13;;;48.63;;
11835;SDS011;5977;51.972;7.640;2023-12-20T10:50:57;149.97;;;48.73;;
11835;SDS011;5977;51.972;7.640;2023-12-20T10:53:25;151.20;;;49.37;;
11835;SDS011;5977;51.972;7.640;2023-12-20T10:55:54;151.20;;;49.30;;
11835;SDS011;5977;51.972;7.640;2023-12-20T10:58:23;151.23;;;49.23;;
11835;SDS011;5977;51.972;7.640;2023-12-20T11:00:54;151.77;;;49.40;;
11835;SDS011;5977;51.972;7.640;2023-12-20T11:03:29;152.50;;;49.67;;
11835;SDS011;5977;51.972;7.640;2023-12-20T11:06:05;152.47;;;49.77;;
11835;SDS011;5977;51.972;7.640;2023-12-20T11:08:38;152.70;;;49.83;;
11835;SDS011;5977;51.972;7.640;2023-12-20T11:11:12;153.07;;;50.07;;
11835;SDS011;5977;51.972;7.640;2023-12-20T11:13:53;152.70;;;49.77;;
11835;SDS011;5977;51.972;7.640;2023-12-20T11:16:24;152.73;;;49.63;;
11835;SDS011;5977;51.972;7.640;2023-12-20T11:19:04;153.77;;;50.17;;
11835;SDS011;5977;51.972;7.640;2023-12-20T11:21:33;153.77;;;50.30;;
11835;SDS011;5977;51.972;7.640;2023-12-20T11:24:01;153.40;;;50.07;;
11835;SDS011;5977;51.972;7.640;2023-12-20T11:26:31;153.13;;;49.97;;
11835;SDS011;5977;51.972;7.640;2023-12-20T11:31:56;153.23;;;49.97;;
11835;SDS011;5977;51.972;7.640;2023-12-20T11:34:26;153.63;;;50.10;;
11835;SDS011;5977;51.972;7.640;2023-12-20T11:37:00;153.87;;;50.27;;
11835;SDS011;5977;51.972;7.640;2023-12-20T11:39:30;153.77;;;50.03;;
11835;SDS011;5977;51.972;7.640;2023-12-20T11:42:03;154.30;;;50.20;;
11835;SDS011;5977;51.972;7.640;2023-12-20T11:44:32;153.77;;;50.13;;
11835;SDS011;5977;51.972;7.640;2023-12-20T11:47:00;153.57;;;49.93;;
11835;SDS011;5977;51.972;7.640;2023-12-20T11:49:28;153.70;;;50.17;;
11835;SDS011;5977;51.972;7.640;2023-12-20T11:51:57;154.13;;;50.17;;
11835;SDS011;5977;51.972;7.640;2023-12-20T11:54:29;154.70;;;50.40;;
11835;SDS011;5977;51.972;7.640;2023-12-20T11:56:57;154.40;;;50.23;;
11835;SDS011;5977;51.972;7.640;2023-12-20T11:59:25;153.30;;;49.90;;
11835;SDS011;5977;51.972;7.640;2023-12-20T12:01:53;153.87;;;50.07;;
11835;SDS011;5977;51.972;7.640;2023-12-20T12:04:22;153.63;;;49.90;;
11835;SDS011;5977;51.972;7.640;2023-12-20T12:06:50;153.90;;;50.13;;
11835;SDS011;5977;51.972;7.640;2023-12-20T12:09:18;153.53;;;50.03;;
11835;SDS011;5977;51.972;7.640;2023-12-20T12:11:48;153.73;;;50.13;;
11835;SDS011;5977;51.972;7.640;2023-12-20T12:14:16;153.80;;;50.13;;
11835;SDS011;5977;51.972;7.640;2023-12-20T12:16:45;153.83;;;50.17;;
11835;SDS011;5977;51.972;7.640;2023-12-20T12:19:22;153.90;;;50.17;;
11835;SDS011;5977;51.972;7.640;2023-12-20T12:21:51;153.43;;;49.83;;
11835;SDS011;5977;51.972;7.640;2023-12-20T12:24:31;154.63;;;50.27;;
11835;SDS011;5977;51.972;7.640;2023-12-20T12:27:00;154.77;;;50.33;;
11835;SDS011;5977;51.972;7.640;2023-12-20T12:29:28;154.13;;;50.23;;
11835;SDS011;5977;51.972;7.640;2023-12-20T12:31:56;154.73;;;50.30;;
11835;SDS011;5977;51.972;7.640;2023-12-20T12:34:24;154.70;;;50.30;;
11835;SDS011;5977;51.972;7.640;2023-12-20T12:36:54;154.30;;;50.27;;
11835;SDS011;5977;51.972;7.640;2023-12-20T12:39:22;154.37;;;50.40;;
11835;SDS011;5977;51.972;7.640;2023-12-20T12:41:52;154.57;;;50.37;;
11835;SDS011;5977;51.972;7.640;2023-12-20T12:44:21;154.10;;;50.23;;
11835;SDS011;5977;51.972;7.640;2023-12-20T12:46:49;154.53;;;50.27;;
11835;SDS011;5977;51.972;7.640;2023-12-20T12:49:19;154.10;;;50.17;;
11835;SDS011;5977;51.972;7.640;2023-12-20T12:51:48;154.33;;;50.30;;
11835;SDS011;5977;51.972;7.640;2023-12-20T12:54:16;154.13;;;50.07;;
11835;SDS011;5977;51.972;7.640;2023-12-20T12:56:44;155.10;;;50.47;;
11835;SDS011;5977;51.972;7.640;2023-12-20T12:59:13;154.40;;;50.17;;
11835;SDS011;5977;51.972;7.640;2023-12-20T13:01:43;153.63;;;49.80;;
11835;SDS011;5977;51.972;7.640;2023-12-20T13:04:11;154.83;;;50.60;;
11835;SDS011;5977;51.972;7.640;2023-12-20T13:06:39;154.63;;;50.27;;
11835;SDS011;5977;51.972;7.640;2023-12-20T13:09:08;154.30;;;50.33;;
11835;SDS011;5977;51.972;7.640;2023-12-20T13:11:36;154.87;;;50.63;;
11835;SDS011;5977;51.972;7.640;2023-12-20T13:14:04;154.70;;;50.37;;
11835;SDS011;5977;51.972;7.640;2023-12-20T13:16:36;153.77;;;50.07;;
11835;SDS011;5977;51.972;7.640;2023-12-20T13:19:06;154.27;;;50.23;;
11835;SDS011;5977;51.972;7.640;2023-12-20T13:21:34;153.60;;;49.90;;
11835;SDS011;5977;51.972;7.640;2023-12-20T13:24:02;153.60;;;49.97;;
11835;SDS011;5977;51.972;7.640;2023-12-20T13:26:31;153.57;;;49.77;;
11835;SDS011;5977;51.972;7.640;2023-12-20T13:28:59;153.27;;;49.77;;
11835;SDS011;5977;51.972;7.640;2023-12-20T13:31:27;153.20;;;49.87;;
11835;SDS011;5977;51.972;7.640;2023-12-20T13:33:55;153.43;;;49.80;;
11835;SDS011;5977;51.972;7.640;2023-12-20T13:36:25;153.47;;;49.80;;
11835;SDS011;5977;51.972;7.640;2023-12-20T13:38:53;153.73;;;49.87;;
11835;SDS011;5977;51.972;7.640;2023-12-20T13:41:21;153.80;;;50.00;;
11835;SDS011;5977;51.972;7.640;2023-12-20T13:43:49;154.10;;;50.10;;
11835;SDS011;5977;51.972;7.640;2023-12-20T13:46:17;154.30;;;50.20;;
11835;SDS011;5977;51.972;7.640;2023-12-20T13:48:45;154.20;;;50.17;;
11835;SDS011;5977;51.972;7.640;2023-12-20T13:51:13;154.13;;;49.97;;
11835;SDS011;5977;51.972;7.640;2023-12-20T13:53:42;154.17;;;50.10;;
11835;SDS011;5977;51.972;7.640;2023-12-20T13:56:10;154.90;;;50.40;;
11835;SDS011;5977;51.972;7.640;2023-12-20T13:58:38;154.43;;;50.03;;
11835;SDS011;5977;51.972;7.640;2023-12-20T14:01:06;154.33;;;50.23;;
11835;SDS011;5977;51.972;7.640;2023-12-20T14:03:34;154.20;;;50.23;;
11835;SDS011;5977;51.972;7.640;2023-12-20T14:06:02;154.13;;;50.10;;
11835;SDS011;5977;51.972;7.640;2023-12-20T14:08:30;154.90;;;50.33;;
11835;SDS011;5977;51.972;7.640;2023-12-20T14:11:00;153.90;;;50.00;;
11835;SDS011;5977;51.972;7.640;2023-12-20T14:13:28;154.27;;;50.20;;
11835;SDS011;5977;51.972;7.640;2023-12-20T14:15:57;154.30;;;50.17;;
11835;SDS011;5977;51.972;7.640;2023-12-20T14:18:26;155.03;;;50.60;;
11835;SDS011;5977;51.972;7.640;2023-12-20T14:20:55;154.40;;;50.13;;
11835;SDS011;5977;51.972;7.640;2023-12-20T14:23:23;153.97;;;50.10;;
11835;SDS011;5977;51.972;7.640;2023-12-20T14:25:51;154.23;;;50.00;;
11835;SDS011;5977;51.972;7.640;2023-12-20T14:28:20;154.23;;;50.00;;
11835;SDS011;5977;51.972;7.640;2023-12-20T14:30:48;154.23;;;50.13;;
11835;SDS011;5977;51.972;7.640;2023-12-20T14:33:17;154.60;;;50.27;;